createdAt,value
2019-04-10T00:00:47.948Z,0.00
2019-04-10T00:01:47.494Z,0.00
2019-04-10T00:02:48.062Z,0.00
2019-04-10T00:03:48.300Z,0.00
2019-04-10T00:04:47.487Z,0.00
2019-04-10T00:05:47.965Z,0.00
2019-04-10T00:06:48.006Z,0.00
2019-04-10T00:07:47.976Z,0.00
2019-04-10T00:08:47.452Z,0.00
2019-04-10T00:09:47.546Z,0.00
2019-04-10T00:10:47.956Z,0.00
2019-04-10T00:11:47.428Z,0.00
2019-04-10T00:12:47.686Z,0.00
2019-04-10T00:13:47.419Z,0.00
2019-04-10T00:14:48.183Z,0.00
2019-04-10T00:15:48.600Z,0.00
2019-04-10T00:16:47.390Z,0.00
2019-04-10T00:17:47.393Z,0.00
2019-04-10T00:18:48.249Z,0.00
2019-04-10T00:19:47.705Z,0.00
2019-04-10T00:20:47.363Z,0.00
2019-04-10T00:21:47.427Z,0.00
2019-04-10T00:22:47.355Z,0.00
2019-04-10T00:23:47.349Z,0.00
2019-04-10T00:24:48.334Z,0.00
2019-04-10T00:25:47.336Z,0.00
2019-04-10T00:26:48.031Z,0.00
2019-04-10T00:27:47.318Z,0.00
2019-04-10T00:28:47.696Z,0.00
2019-04-10T00:29:47.311Z,0.00
2019-04-10T00:30:47.299Z,0.00
2019-04-10T00:31:47.291Z,0.00
2019-04-10T00:32:48.095Z,0.00
2019-04-10T00:33:47.282Z,0.00
2019-04-10T00:34:47.660Z,0.00
2019-04-10T00:35:47.736Z,0.00
2019-04-10T00:36:47.260Z,0.00
2019-04-10T00:37:47.248Z,0.00
2019-04-10T00:38:48.254Z,0.00
2019-04-10T00:39:47.238Z,0.00
2019-04-10T00:40:47.872Z,0.00
2019-04-10T00:41:48.260Z,0.00
2019-04-10T00:42:47.397Z,0.00
2019-04-10T00:43:47.204Z,0.00
2019-04-10T00:44:48.054Z,0.00
2019-04-10T00:45:47.193Z,0.00
2019-04-10T00:46:47.182Z,0.00
2019-04-10T00:47:47.764Z,0.00
2019-04-10T00:48:48.079Z,0.00
2019-04-10T00:49:48.181Z,0.00
2019-04-10T00:50:47.164Z,0.00
2019-04-10T00:51:47.824Z,0.00
2019-04-10T00:52:48.220Z,0.00
2019-04-10T00:53:47.566Z,0.00
2019-04-10T00:54:47.132Z,0.00
2019-04-10T00:55:48.129Z,0.00
2019-04-10T00:56:47.116Z,0.00
2019-04-10T00:57:47.734Z,0.00
2019-04-10T00:58:47.869Z,0.00
2019-04-10T00:59:47.106Z,0.00
2019-04-10T01:00:47.643Z,0.00
2019-04-10T01:01:47.822Z,0.00
2019-04-10T01:02:47.131Z,0.00
2019-04-10T01:03:48.582Z,0.00
2019-04-10T01:04:47.067Z,0.00
2019-04-10T01:05:47.200Z,0.00
2019-04-10T01:06:47.046Z,0.00
2019-04-10T01:07:47.157Z,0.00
2019-04-10T01:08:47.033Z,0.00
2019-04-10T01:09:47.888Z,0.00
2019-04-10T01:10:47.013Z,0.00
2019-04-10T01:11:47.522Z,0.00
2019-04-10T01:12:47.968Z,0.00
2019-04-10T01:13:47.414Z,0.00
2019-04-10T01:14:47.672Z,0.00
2019-04-10T01:15:46.977Z,0.00
2019-04-10T01:16:47.355Z,0.00
2019-04-10T01:17:46.962Z,0.00
2019-04-10T01:18:47.798Z,0.00
2019-04-10T01:19:48.032Z,0.00
2019-04-10T01:20:48.011Z,0.00
2019-04-10T01:21:46.930Z,0.00
2019-04-10T01:22:47.676Z,0.00
2019-04-10T01:23:46.925Z,0.00
2019-04-10T01:24:48.014Z,0.00
2019-04-10T01:25:46.908Z,0.00
2019-04-10T01:26:47.565Z,0.00
2019-04-10T01:27:47.930Z,0.00
2019-04-10T01:28:47.143Z,0.00
2019-04-10T01:29:46.879Z,0.00
2019-04-10T01:30:46.865Z,0.00
2019-04-10T01:31:47.680Z,0.00
2019-04-10T01:32:46.850Z,0.00
2019-04-10T01:33:47.450Z,0.00
2019-04-10T01:34:46.839Z,0.00
2019-04-10T01:35:46.832Z,0.00
2019-04-10T01:36:46.820Z,0.00
2019-04-10T01:37:53.513Z,0.00
2019-04-10T01:38:46.812Z,0.00
2019-04-10T01:39:46.800Z,0.00
2019-04-10T01:40:47.634Z,0.00
2019-04-10T01:41:46.785Z,0.00
2019-04-10T01:43:00.780Z,0.00
2019-04-10T01:43:46.854Z,0.00
2019-04-10T01:44:47.094Z,0.00
2019-04-10T01:45:46.759Z,0.00
2019-04-10T01:46:46.751Z,0.00
2019-04-10T01:47:47.617Z,0.00
2019-04-10T01:48:46.733Z,0.00
2019-04-10T01:49:46.962Z,0.00
2019-04-10T01:50:46.721Z,0.00
2019-04-10T01:51:47.630Z,0.00
2019-04-10T01:52:47.151Z,0.00
2019-04-10T01:53:46.694Z,0.00
2019-04-10T01:54:47.131Z,0.00
2019-04-10T01:55:47.089Z,0.00
2019-04-10T01:56:46.670Z,0.00
2019-04-10T01:57:46.676Z,0.00
2019-04-10T01:58:47.694Z,0.00
2019-04-10T01:59:46.655Z,0.00
2019-04-10T02:00:46.649Z,0.00
2019-04-10T02:01:46.638Z,0.00
2019-04-10T02:02:47.662Z,0.00
2019-04-10T02:03:46.633Z,0.00
2019-04-10T02:04:46.616Z,0.00
2019-04-10T02:05:47.113Z,0.00
2019-04-10T02:06:46.596Z,0.00
2019-04-10T02:07:59.437Z,0.00
2019-04-10T02:08:46.584Z,0.00
2019-04-10T02:09:47.655Z,0.00
2019-04-10T02:10:46.570Z,0.00
2019-04-10T02:11:46.560Z,0.00
2019-04-10T02:12:47.231Z,0.00
2019-04-10T02:13:47.606Z,0.00
2019-04-10T02:14:46.820Z,0.00
2019-04-10T02:15:46.529Z,0.00
2019-04-10T02:16:47.288Z,0.00
2019-04-10T02:17:46.685Z,0.00
2019-04-10T02:18:46.502Z,0.00
2019-04-10T02:19:46.495Z,0.00
2019-04-10T02:20:47.364Z,0.00
2019-04-10T02:21:47.512Z,0.00
2019-04-10T02:22:46.472Z,0.00
2019-04-10T02:23:46.915Z,0.00
2019-04-10T02:24:47.271Z,0.00
2019-04-10T02:25:47.213Z,0.00
2019-04-10T02:26:46.670Z,0.00
2019-04-10T02:27:46.782Z,0.00
2019-04-10T02:28:47.080Z,0.00
2019-04-10T02:29:46.421Z,0.00
2019-04-10T02:30:47.777Z,0.00
2019-04-10T02:31:46.885Z,0.00
2019-04-10T02:32:48.093Z,0.00
2019-04-10T02:33:47.379Z,0.00
2019-04-10T02:34:48.321Z,0.00
2019-04-10T02:35:47.698Z,0.00
2019-04-10T02:36:46.931Z,0.00
2019-04-10T02:37:49.528Z,0.00
2019-04-10T02:38:59.306Z,0.00
2019-04-10T02:39:50.254Z,0.00
2019-04-10T02:40:47.488Z,0.00
2019-04-10T02:41:46.501Z,0.00
2019-04-10T02:42:47.354Z,0.00
2019-04-10T02:43:47.469Z,0.00
2019-04-10T02:44:48.094Z,0.00
2019-04-10T02:45:46.977Z,0.00
2019-04-10T02:46:47.346Z,0.00
2019-04-10T02:47:47.451Z,0.00
2019-04-10T02:48:47.581Z,0.00
2019-04-10T02:49:47.098Z,0.00
2019-04-10T02:50:46.257Z,0.00
2019-04-10T02:51:47.611Z,0.00
2019-04-10T02:52:48.216Z,0.00
2019-04-10T02:53:48.044Z,0.00
2019-04-10T02:54:46.238Z,0.00
2019-04-10T02:55:47.499Z,0.00
2019-04-10T02:56:47.705Z,0.00
2019-04-10T02:57:46.674Z,0.00
2019-04-10T02:58:47.099Z,0.00
2019-04-10T02:59:47.063Z,0.00
2019-04-10T03:00:46.432Z,0.00
2019-04-10T03:01:47.429Z,0.00
2019-04-10T03:02:47.751Z,0.00
2019-04-10T03:03:46.505Z,0.00
2019-04-10T03:04:46.594Z,0.00
2019-04-10T03:05:46.666Z,0.00
2019-04-10T03:06:47.120Z,0.00
2019-04-10T03:07:46.463Z,0.00
2019-04-10T03:09:05.944Z,0.00
2019-04-10T03:10:00.962Z,0.00
2019-04-10T03:10:52.634Z,0.00
2019-04-10T03:11:47.433Z,0.00
2019-04-10T03:12:46.386Z,0.00
2019-04-10T03:13:47.282Z,0.00
2019-04-10T03:14:47.602Z,0.00
2019-04-10T03:15:47.512Z,0.00
2019-04-10T03:16:46.052Z,0.00
2019-04-10T03:17:46.261Z,0.00
2019-04-10T03:18:46.031Z,0.00
2019-04-10T03:19:46.025Z,0.00
2019-04-10T03:20:46.806Z,0.00
2019-04-10T03:21:47.082Z,0.00
2019-04-10T03:22:47.119Z,0.00
2019-04-10T03:23:45.995Z,0.00
2019-04-10T03:24:46.487Z,0.00
2019-04-10T03:25:45.974Z,0.00
2019-04-10T03:26:45.971Z,0.00
2019-04-10T03:27:46.867Z,0.00
2019-04-10T03:28:45.954Z,0.00
2019-04-10T03:29:46.397Z,0.00
2019-04-10T03:30:46.696Z,0.00
2019-04-10T03:31:47.779Z,0.00
2019-04-10T03:32:51.569Z,0.00
2019-04-10T03:33:49.369Z,0.00
2019-04-10T03:34:48.234Z,0.00
2019-04-10T03:35:47.116Z,0.00
2019-04-10T03:36:45.889Z,0.00
2019-04-10T03:37:46.686Z,0.00
2019-04-10T03:38:55.347Z,0.00
2019-04-10T03:39:46.756Z,0.00
2019-04-10T03:40:45.903Z,0.00
2019-04-10T03:41:45.846Z,0.00
2019-04-10T03:42:45.835Z,0.00
2019-04-10T03:43:45.874Z,0.00
2019-04-10T03:44:45.824Z,0.00
2019-04-10T03:45:46.687Z,0.00
2019-04-10T03:46:46.833Z,0.00
2019-04-10T03:47:45.800Z,0.00
2019-04-10T03:48:45.790Z,0.00
2019-04-10T03:49:46.333Z,0.00
2019-04-10T03:50:45.923Z,0.00
2019-04-10T03:51:45.762Z,0.00
2019-04-10T03:52:45.762Z,0.00
2019-04-10T03:53:46.647Z,0.00
2019-04-10T03:54:46.068Z,0.00
2019-04-10T03:55:45.733Z,0.00
2019-04-10T03:56:45.782Z,0.00
2019-04-10T03:57:46.872Z,0.00
2019-04-10T03:58:45.705Z,0.00
2019-04-10T03:59:45.701Z,0.00
2019-04-10T04:00:46.710Z,0.00
2019-04-10T04:01:45.685Z,0.00
2019-04-10T04:02:46.394Z,0.00
2019-04-10T04:03:45.776Z,0.00
2019-04-10T04:04:46.024Z,0.00
2019-04-10T04:05:46.552Z,0.00
2019-04-10T04:06:46.041Z,0.00
2019-04-10T04:07:46.497Z,0.00
2019-04-10T04:08:45.884Z,0.00
2019-04-10T04:09:46.044Z,0.00
2019-04-10T04:10:45.811Z,0.00
2019-04-10T04:11:46.121Z,0.00
2019-04-10T04:12:46.693Z,0.00
2019-04-10T04:13:45.909Z,0.00
2019-04-10T04:14:46.383Z,4.00
2019-04-10T04:15:46.335Z,0.00
2019-04-10T04:16:45.558Z,0.00
2019-04-10T04:17:46.508Z,4.00
2019-04-10T04:18:45.702Z,0.00
2019-04-10T04:19:46.279Z,4.00
2019-04-10T04:20:45.530Z,4.00
2019-04-10T04:21:45.522Z,8.00
2019-04-10T04:22:46.122Z,8.00
2019-04-10T04:23:45.497Z,8.00
2019-04-10T04:24:46.129Z,12.00
2019-04-10T04:25:46.244Z,12.00
2019-04-10T04:26:46.474Z,12.00
2019-04-10T04:27:46.342Z,16.00
2019-04-10T04:28:45.458Z,20.00
2019-04-10T04:29:45.469Z,24.00
2019-04-10T04:30:45.719Z,28.00
2019-04-10T04:31:45.430Z,32.00
2019-04-10T04:32:46.148Z,40.00
2019-04-10T04:33:45.416Z,44.00
2019-04-10T04:34:45.485Z,52.00
2019-04-10T04:35:45.897Z,56.00
2019-04-10T04:36:45.390Z,68.00
2019-04-10T04:37:46.276Z,76.00
2019-04-10T04:38:45.376Z,84.00
2019-04-10T04:39:45.391Z,96.00
2019-04-10T04:40:46.321Z,108.00
2019-04-10T04:41:45.350Z,124.00
2019-04-10T04:42:45.344Z,136.00
2019-04-10T04:43:47.176Z,152.00
2019-04-10T04:44:45.454Z,168.00
2019-04-10T04:45:46.250Z,184.00
2019-04-10T04:46:45.307Z,200.00
2019-04-10T04:47:45.299Z,220.00
2019-04-10T04:48:45.399Z,236.00
2019-04-10T04:49:45.285Z,256.00
2019-04-10T04:50:45.717Z,280.00
2019-04-10T04:51:45.718Z,304.00
2019-04-10T04:52:45.660Z,324.00
2019-04-10T04:53:45.252Z,348.00
2019-04-10T04:54:45.629Z,372.00
2019-04-10T04:55:45.232Z,400.00
2019-04-10T04:56:46.273Z,420.00
2019-04-10T04:57:45.219Z,448.00
2019-04-10T04:58:45.616Z,476.00
2019-04-10T04:59:45.196Z,504.00
2019-04-10T05:00:45.942Z,532.00
2019-04-10T05:01:45.180Z,560.00
2019-04-10T05:02:45.177Z,592.00
2019-04-10T05:03:46.082Z,620.00
2019-04-10T05:04:45.841Z,648.00
2019-04-10T05:05:45.153Z,680.00
2019-04-10T05:06:45.818Z,712.00
2019-04-10T05:07:55.517Z,740.00
2019-04-10T05:08:46.256Z,768.00
2019-04-10T05:09:45.972Z,800.00
2019-04-10T05:10:45.373Z,832.00
2019-04-10T05:11:45.094Z,860.00
2019-04-10T05:12:45.263Z,896.00
2019-04-10T05:13:45.084Z,924.00
2019-04-10T05:14:46.083Z,956.00
2019-04-10T05:15:45.069Z,988.00
2019-04-10T05:16:45.698Z,1016.00
2019-04-10T05:17:45.152Z,1056.00
2019-04-10T05:18:45.682Z,1088.00
2019-04-10T05:19:45.032Z,1124.00
2019-04-10T05:20:49.636Z,1152.00
2019-04-10T05:21:45.664Z,1188.00
2019-04-10T05:22:45.667Z,1220.00
2019-04-10T05:23:44.998Z,1252.00
2019-04-10T05:24:44.995Z,1280.00
2019-04-10T05:25:45.489Z,1316.00
2019-04-10T05:26:44.970Z,1348.00
2019-04-10T05:27:44.964Z,1384.00
2019-04-10T05:28:44.956Z,1412.00
2019-04-10T05:29:45.107Z,1444.00
2019-04-10T05:30:45.256Z,1476.00
2019-04-10T05:31:44.929Z,1504.00
2019-04-10T05:32:44.923Z,1532.00
2019-04-10T05:33:44.966Z,1564.00
2019-04-10T05:34:44.904Z,1588.00
2019-04-10T05:35:45.054Z,1616.00
2019-04-10T05:36:44.890Z,1640.00
2019-04-10T05:37:45.688Z,1672.00
2019-04-10T05:38:45.978Z,1704.00
2019-04-10T05:39:49.128Z,1736.00
2019-04-10T05:40:44.858Z,1768.00
2019-04-10T05:41:44.850Z,1796.00
2019-04-10T05:42:45.017Z,1828.00
2019-04-10T05:43:44.850Z,1856.00
2019-04-10T05:44:44.825Z,1888.00
2019-04-10T05:45:44.816Z,1924.00
2019-04-10T05:46:45.238Z,1952.00
2019-04-10T05:47:44.802Z,1980.00
2019-04-10T05:48:44.789Z,2016.00
2019-04-10T05:49:45.030Z,2048.00
2019-04-10T05:50:53.857Z,2080.00
2019-04-10T05:51:45.724Z,2104.00
2019-04-10T05:52:45.109Z,2140.00
2019-04-10T05:53:44.941Z,2168.00
2019-04-10T05:54:44.744Z,2204.00
2019-04-10T05:55:45.224Z,2232.00
2019-04-10T05:56:44.843Z,2268.00
2019-04-10T05:57:44.878Z,2300.00
2019-04-10T05:58:44.907Z,2332.00
2019-04-10T05:59:44.704Z,2360.00
2019-04-10T06:00:45.056Z,2380.00
2019-04-10T06:01:45.732Z,2408.00
2019-04-10T06:02:44.678Z,2432.00
2019-04-10T06:03:45.652Z,2468.00
2019-04-10T06:04:45.478Z,2504.00
2019-04-10T06:05:44.657Z,2548.00
2019-04-10T06:06:44.645Z,2572.00
2019-04-10T06:07:45.443Z,2608.00
2019-04-10T06:08:44.630Z,2640.00
2019-04-10T06:09:54.092Z,2668.00
2019-04-10T06:10:45.664Z,2704.00
2019-04-10T06:11:45.780Z,2720.00
2019-04-10T06:12:44.780Z,2744.00
2019-04-10T06:13:45.168Z,2772.00
2019-04-10T06:14:44.584Z,2792.00
2019-04-10T06:15:45.437Z,2816.00
2019-04-10T06:16:44.774Z,2856.00
2019-04-10T06:17:44.894Z,2884.00
2019-04-10T06:18:45.181Z,2908.00
2019-04-10T06:19:44.831Z,2940.00
2019-04-10T06:20:45.263Z,2964.00
2019-04-10T06:21:44.536Z,2996.00
2019-04-10T06:22:45.495Z,3020.00
2019-04-10T06:23:44.516Z,3052.00
2019-04-10T06:24:44.674Z,3080.00
2019-04-10T06:25:45.669Z,3100.00
2019-04-10T06:26:45.788Z,3128.00
2019-04-10T06:27:45.020Z,3152.00
2019-04-10T06:28:44.478Z,3172.00
2019-04-10T06:29:45.016Z,3204.00
2019-04-10T06:30:44.470Z,3244.00
2019-04-10T06:31:45.085Z,3280.00
2019-04-10T06:32:45.463Z,3316.00
2019-04-10T06:33:44.498Z,3348.00
2019-04-10T06:34:44.433Z,3380.00
2019-04-10T06:35:44.740Z,3392.00
2019-04-10T06:36:44.431Z,3428.00
2019-04-10T06:37:44.412Z,3460.00
2019-04-10T06:38:45.402Z,3488.00
2019-04-10T06:39:44.987Z,3528.00
2019-04-10T06:40:44.389Z,3556.00
2019-04-10T06:41:44.383Z,3596.00
2019-04-10T06:42:49.770Z,3632.00
2019-04-10T06:43:45.350Z,3684.00
2019-04-10T06:44:44.600Z,3708.00
2019-04-10T06:45:44.357Z,3732.00
2019-04-10T06:46:44.500Z,3756.00
2019-04-10T06:47:44.550Z,3800.00
2019-04-10T06:48:44.562Z,3836.00
2019-04-10T06:49:44.325Z,3872.00
2019-04-10T06:50:44.774Z,3900.00
2019-04-10T06:51:45.110Z,3928.00
2019-04-10T06:52:45.053Z,3968.00
2019-04-10T06:53:44.984Z,4000.00
2019-04-10T06:54:44.845Z,4016.00
2019-04-10T06:55:44.891Z,4060.00
2019-04-10T06:56:45.372Z,4100.00
2019-04-10T06:57:50.934Z,4140.00
2019-04-10T06:58:44.414Z,4172.00
2019-04-10T06:59:44.251Z,4200.00
2019-04-10T07:00:48.646Z,4208.00
2019-04-10T07:01:48.807Z,4232.00
2019-04-10T07:02:44.409Z,4256.00
2019-04-10T07:03:52.735Z,4248.00
2019-04-10T07:04:51.564Z,4216.00
2019-04-10T07:05:59.899Z,4212.00
2019-04-10T07:06:57.525Z,4232.00
2019-04-10T07:07:51.270Z,4268.00
2019-04-10T07:08:49.846Z,4372.00
2019-04-10T07:09:45.342Z,4424.00
2019-04-10T07:10:53.083Z,4448.00
2019-04-10T07:11:44.951Z,4432.00
2019-04-10T07:12:44.172Z,4440.00
2019-04-10T07:13:44.936Z,4452.00
2019-04-10T07:14:47.712Z,4464.00
2019-04-10T07:15:45.464Z,4504.00
2019-04-10T07:16:44.343Z,4492.00
2019-04-10T07:17:45.024Z,4504.00
2019-04-10T07:18:47.771Z,4552.00
2019-04-10T07:19:45.636Z,4552.00
2019-04-10T07:20:44.223Z,4584.00
2019-04-10T07:21:44.115Z,4608.00
2019-04-10T07:22:46.539Z,4632.00
2019-04-10T07:23:44.981Z,4632.00
2019-04-10T07:24:44.130Z,4660.00
2019-04-10T07:25:45.774Z,4688.00
2019-04-10T07:26:46.583Z,4736.00
2019-04-10T07:27:44.173Z,4748.00
2019-04-10T07:28:46.333Z,4760.00
2019-04-10T07:29:44.628Z,4764.00
2019-04-10T07:30:44.054Z,4768.00
2019-04-10T07:31:44.680Z,4808.00
2019-04-10T07:32:47.265Z,4824.00
2019-04-10T07:33:45.160Z,4828.00
2019-04-10T07:34:44.524Z,4864.00
2019-04-10T07:35:44.354Z,4904.00
2019-04-10T07:36:45.517Z,4952.00
2019-04-10T07:37:44.493Z,4992.00
2019-04-10T07:38:44.012Z,5016.00
2019-04-10T07:39:44.786Z,5036.00
2019-04-10T07:40:44.965Z,5068.00
2019-04-10T07:41:45.169Z,5092.00
2019-04-10T07:42:44.206Z,5104.00
2019-04-10T07:43:44.771Z,5120.00
2019-04-10T07:44:43.981Z,5132.00
2019-04-10T07:45:43.971Z,5140.00
2019-04-10T07:46:43.977Z,5160.00
2019-04-10T07:47:44.122Z,5164.00
2019-04-10T07:48:43.959Z,5168.00
2019-04-10T07:49:44.093Z,5176.00
2019-04-10T07:50:45.552Z,5204.00
2019-04-10T07:51:44.634Z,5260.00
2019-04-10T07:52:43.935Z,5320.00
2019-04-10T07:53:43.927Z,5368.00
2019-04-10T07:54:44.996Z,5392.00
2019-04-10T07:55:57.487Z,5424.00
2019-04-10T07:56:43.913Z,5452.00
2019-04-10T07:57:47.247Z,5460.00
2019-04-10T07:58:44.034Z,5540.00
2019-04-10T07:59:43.896Z,5564.00
2019-04-10T08:00:44.827Z,5608.00
2019-04-10T08:01:43.891Z,5640.00
2019-04-10T08:02:43.885Z,5676.00
2019-04-10T08:03:43.920Z,5732.00
2019-04-10T08:04:43.880Z,5760.00
2019-04-10T08:05:44.106Z,5780.00
2019-04-10T08:06:44.704Z,5788.00
2019-04-10T08:07:44.934Z,5840.00
2019-04-10T08:08:44.797Z,5928.00
2019-04-10T08:09:44.526Z,5980.00
2019-04-10T08:10:45.082Z,5996.00
2019-04-10T08:11:44.792Z,6084.00
2019-04-10T08:12:50.031Z,6144.00
2019-04-10T08:13:44.816Z,6304.00
2019-04-10T08:14:44.275Z,6388.00
2019-04-10T08:15:43.824Z,6372.00
2019-04-10T08:16:43.823Z,6716.00
2019-04-10T08:17:44.429Z,7032.00
2019-04-10T08:18:43.808Z,7588.00
2019-04-10T08:19:43.811Z,7668.00
2019-04-10T08:20:44.131Z,8044.00
2019-04-10T08:21:44.352Z,9468.00
2019-04-10T08:22:44.860Z,11328.00
2019-04-10T08:23:44.583Z,21728.00
2019-04-10T08:24:46.206Z,15424.00
2019-04-10T08:25:43.805Z,20928.00
2019-04-10T08:26:43.782Z,13992.00
2019-04-10T08:27:43.871Z,12844.00
2019-04-10T08:28:43.778Z,16252.00
2019-04-10T08:29:43.778Z,18080.00
2019-04-10T08:30:43.960Z,39104.00
2019-04-10T08:31:44.264Z,41280.00
2019-04-10T08:32:54.927Z,41120.00
2019-04-10T08:33:44.109Z,45984.00
2019-04-10T08:34:44.260Z,54112.00
2019-04-10T08:35:43.759Z,54464.00
2019-04-10T08:36:43.758Z,49152.00
2019-04-10T08:37:43.770Z,45120.00
2019-04-10T08:38:43.748Z,34400.00
2019-04-10T08:39:47.240Z,25504.00
2019-04-10T08:40:43.946Z,34144.00
2019-04-10T08:41:43.807Z,25856.00
2019-04-10T08:42:46.052Z,8360.00
2019-04-10T08:43:43.895Z,11120.00
2019-04-10T08:44:44.524Z,7488.00
2019-04-10T08:45:48.675Z,8632.00
2019-04-10T08:46:44.187Z,7288.00
2019-04-10T08:47:44.253Z,7408.00
2019-04-10T08:48:43.722Z,7836.00
2019-04-10T08:49:43.719Z,7188.00
2019-04-10T08:50:44.017Z,7180.00
2019-04-10T08:51:43.746Z,7152.00
2019-04-10T08:52:44.558Z,7156.00
2019-04-10T08:53:44.619Z,7172.00
2019-04-10T08:54:44.630Z,7196.00
2019-04-10T08:55:43.708Z,7208.00
2019-04-10T08:56:44.846Z,7236.00
2019-04-10T08:57:43.847Z,7256.00
2019-04-10T08:58:43.689Z,7280.00
2019-04-10T08:59:44.505Z,7320.00
2019-04-10T09:00:44.805Z,7336.00
2019-04-10T09:01:43.678Z,7344.00
2019-04-10T09:02:44.432Z,7372.00
2019-04-10T09:03:43.673Z,7412.00
2019-04-10T09:04:44.705Z,7456.00
2019-04-10T09:05:44.814Z,7468.00
2019-04-10T09:06:43.975Z,7504.00
2019-04-10T09:07:44.265Z,7532.00
2019-04-10T09:08:43.704Z,7552.00
2019-04-10T09:09:43.819Z,7596.00
2019-04-10T09:10:44.746Z,7680.00
2019-04-10T09:11:43.648Z,7704.00
2019-04-10T09:12:43.651Z,7688.00
2019-04-10T09:13:44.391Z,7716.00
2019-04-10T09:14:43.641Z,7744.00
2019-04-10T09:15:43.635Z,7760.00
2019-04-10T09:16:44.758Z,7788.00
2019-04-10T09:17:43.848Z,7804.00
2019-04-10T09:18:43.630Z,7860.00
2019-04-10T09:19:44.347Z,7884.00
2019-04-10T09:20:43.662Z,7900.00
2019-04-10T09:21:43.739Z,7912.00
2019-04-10T09:23:07.617Z,7908.00
2019-04-10T09:23:50.227Z,7904.00
2019-04-10T09:24:44.603Z,7984.00
2019-04-10T09:25:43.777Z,8032.00
2019-04-10T09:26:44.537Z,7972.00
2019-04-10T09:27:44.217Z,7936.00
2019-04-10T09:28:43.605Z,7988.00
2019-04-10T09:29:44.522Z,8124.00
2019-04-10T09:30:44.819Z,8036.00
2019-04-10T09:31:43.996Z,8120.00
2019-04-10T09:32:44.398Z,8088.00
2019-04-10T09:33:43.590Z,8072.00
2019-04-10T09:34:46.403Z,8092.00
2019-04-10T09:35:44.623Z,8176.00
2019-04-10T09:36:43.756Z,8188.00
2019-04-10T09:37:43.580Z,8232.00
2019-04-10T09:38:44.135Z,8300.00
2019-04-10T09:39:43.572Z,8368.00
2019-04-10T09:40:44.647Z,8556.00
2019-04-10T09:41:43.909Z,8488.00
2019-04-10T09:42:43.835Z,8472.00
2019-04-10T09:43:43.562Z,8532.00
2019-04-10T09:44:44.387Z,8596.00
2019-04-10T09:45:43.798Z,8592.00
2019-04-10T09:46:43.557Z,8600.00
2019-04-10T09:47:43.885Z,8688.00
2019-04-10T09:48:44.256Z,9024.00
2019-04-10T09:49:46.787Z,8620.00
2019-04-10T09:50:43.911Z,9008.00
2019-04-10T09:51:43.544Z,8696.00
2019-04-10T09:52:44.041Z,8704.00
2019-04-10T09:53:43.535Z,8624.00
2019-04-10T09:54:43.636Z,8528.00
2019-04-10T09:55:44.726Z,8788.00
2019-04-10T09:56:44.199Z,8664.00
2019-04-10T09:57:43.530Z,8788.00
2019-04-10T09:58:44.713Z,8900.00
2019-04-10T09:59:45.566Z,8860.00
2019-04-10T10:00:43.780Z,8960.00
2019-04-10T10:01:44.492Z,9524.00
2019-04-10T10:02:43.515Z,8932.00
2019-04-10T10:03:44.426Z,9040.00
2019-04-10T10:04:43.898Z,9188.00
2019-04-10T10:05:44.556Z,9256.00
2019-04-10T10:06:43.509Z,9292.00
2019-04-10T10:07:43.504Z,9232.00
2019-04-10T10:08:43.758Z,9408.00
2019-04-10T10:09:43.507Z,9472.00
2019-04-10T10:10:43.503Z,9436.00
2019-04-10T10:11:43.512Z,9624.00
2019-04-10T10:12:43.498Z,9728.00
2019-04-10T10:13:43.722Z,9680.00
2019-04-10T10:14:44.331Z,9824.00
2019-04-10T10:15:43.497Z,9876.00
2019-04-10T10:16:44.213Z,9716.00
2019-04-10T10:17:44.498Z,9672.00
2019-04-10T10:18:43.705Z,9892.00
2019-04-10T10:19:43.494Z,9876.00
2019-04-10T10:20:43.955Z,10076.00
2019-04-10T10:21:43.486Z,10292.00
2019-04-10T10:22:43.487Z,10588.00
2019-04-10T10:23:44.616Z,10628.00
2019-04-10T10:24:43.704Z,10716.00
2019-04-10T10:25:43.713Z,10964.00
2019-04-10T10:26:46.045Z,10328.00
2019-04-10T10:27:44.667Z,11176.00
2019-04-10T10:28:43.488Z,11224.00
2019-04-10T10:29:44.119Z,11516.00
2019-04-10T10:30:43.941Z,11860.00
2019-04-10T10:31:44.461Z,12820.00
2019-04-10T10:32:43.785Z,12812.00
2019-04-10T10:33:43.495Z,13252.00
2019-04-10T10:34:43.498Z,14200.00
2019-04-10T10:35:43.499Z,14952.00
2019-04-10T10:36:46.678Z,16768.00
2019-04-10T10:37:43.511Z,20352.00
2019-04-10T10:38:43.512Z,37760.00
2019-04-10T10:39:43.519Z,57280.00
2019-04-10T10:40:43.703Z,39904.00
2019-04-10T10:41:44.652Z,64448.00
2019-04-10T10:42:43.575Z,65248.00
2019-04-10T10:43:44.581Z,64096.00
2019-04-10T10:44:43.533Z,64512.00
2019-04-10T10:45:43.535Z,61984.00
2019-04-10T10:46:43.973Z,61312.00
2019-04-10T10:47:44.279Z,64384.00
2019-04-10T10:48:44.154Z,61824.00
2019-04-10T10:49:44.442Z,56992.00
2019-04-10T10:50:43.659Z,60480.00
2019-04-10T10:51:44.666Z,67520.00
2019-04-10T10:52:43.860Z,65952.00
2019-04-10T10:53:44.085Z,68320.00
2019-04-10T10:54:43.595Z,70624.00
2019-04-10T10:55:43.593Z,72192.00
2019-04-10T10:56:44.634Z,72928.00
2019-04-10T10:57:43.683Z,70976.00
2019-04-10T10:58:43.963Z,61248.00
2019-04-10T10:59:43.933Z,73056.00
2019-04-10T11:00:43.627Z,66624.00
2019-04-10T11:01:44.241Z,70688.00
2019-04-10T11:02:43.718Z,71584.00
2019-04-10T11:03:44.615Z,67648.00
2019-04-10T11:04:43.654Z,68256.00
2019-04-10T11:05:44.510Z,69888.00
2019-04-10T11:06:55.226Z,62368.00
2019-04-10T11:07:43.673Z,58880.00
2019-04-10T11:08:43.904Z,77952.00
2019-04-10T11:09:44.457Z,74848.00
2019-04-10T11:10:47.980Z,72640.00
2019-04-10T11:11:43.704Z,70944.00
2019-04-10T11:12:44.182Z,71648.00
2019-04-10T11:13:43.724Z,73184.00
2019-04-10T11:14:43.738Z,76480.00
2019-04-10T11:15:45.891Z,78336.00
2019-04-10T11:16:43.743Z,75744.00
2019-04-10T11:17:44.736Z,75744.00
2019-04-10T11:18:43.768Z,78976.00
2019-04-10T11:19:45.591Z,59072.00
2019-04-10T11:20:43.978Z,77920.00
2019-04-10T11:21:44.998Z,80448.00
2019-04-10T11:22:44.691Z,74080.00
2019-04-10T11:23:43.948Z,74048.00
2019-04-10T11:24:44.525Z,71808.00
2019-04-10T11:25:43.906Z,74592.00
2019-04-10T11:26:44.099Z,56608.00
2019-04-10T11:27:43.849Z,72640.00
2019-04-10T11:28:43.853Z,75744.00
2019-04-10T11:29:45.443Z,76096.00
2019-04-10T11:30:44.945Z,80960.00
2019-04-10T11:32:44.469Z,76512.00
2019-04-10T11:33:49.671Z,75488.00
2019-04-10T11:34:43.911Z,74688.00
2019-04-10T11:35:44.011Z,78624.00
2019-04-10T11:36:44.137Z,69056.00
2019-04-10T11:37:46.839Z,75616.00
2019-04-10T11:38:45.379Z,79040.00
2019-04-10T11:39:47.178Z,78464.00
2019-04-10T11:40:45.614Z,22048.00
2019-04-10T11:41:45.803Z,23808.00
2019-04-10T11:42:44.736Z,78112.00
2019-04-10T11:43:46.168Z,36160.00
2019-04-10T11:44:45.655Z,42880.00
2019-04-10T11:45:48.778Z,80704.00
2019-04-10T11:46:44.028Z,83776.00
2019-04-10T11:47:44.984Z,52448.00
2019-04-10T11:48:45.515Z,77600.00
2019-04-10T11:49:45.162Z,80640.00
2019-04-10T11:50:44.459Z,71872.00
2019-04-10T11:51:46.227Z,79744.00
2019-04-10T11:52:49.768Z,79104.00
2019-04-10T11:53:47.666Z,80992.00
2019-04-10T11:54:46.269Z,81472.00
2019-04-10T11:55:50.132Z,84128.00
2019-04-10T11:56:48.260Z,83904.00
2019-04-10T11:57:45.911Z,83392.00
2019-04-10T11:59:47.416Z,18176.00
2019-04-10T12:00:51.229Z,21760.00
2019-04-10T12:01:46.415Z,26176.00
2019-04-10T12:02:47.388Z,89120.00
2019-04-10T12:03:50.421Z,86816.00
2019-04-10T12:04:52.987Z,88544.00
2019-04-10T12:05:46.360Z,62016.00
2019-04-10T12:06:46.615Z,90592.00
2019-04-10T12:09:08.322Z,97888.00
2019-04-10T12:11:17.070Z,76608.00
2019-04-10T12:11:44.724Z,49408.00
2019-04-10T12:12:44.309Z,99392.00
2019-04-10T12:13:44.322Z,95136.00
2019-04-10T12:14:44.332Z,93280.00
2019-04-10T12:15:45.009Z,88768.00
2019-04-10T12:16:45.249Z,90944.00
2019-04-10T12:17:44.489Z,89952.00
2019-04-10T12:18:44.385Z,91424.00
2019-04-10T12:19:44.599Z,93664.00
2019-04-10T12:20:45.194Z,99232.00
2019-04-10T12:21:44.424Z,34880.00
2019-04-10T12:22:44.431Z,21440.00
2019-04-10T12:23:45.245Z,18272.00
2019-04-10T12:24:44.458Z,40992.00
2019-04-10T12:25:45.038Z,60640.00
2019-04-10T12:26:44.477Z,89632.00
2019-04-10T12:27:45.301Z,26336.00
2019-04-10T12:28:44.499Z,71264.00
2019-04-10T12:29:44.707Z,23296.00
2019-04-10T12:30:45.688Z,39904.00
2019-04-10T12:31:44.534Z,71776.00